Huvudsida
METAR-TAF:

METAR-TAF

Flygplatser :

Padua, Italien

latitud: 45-23-45N, longitud: 11-50-53E, höjd: 13 m

Aktuellt väderrapport

Denna rapport gjordes för 14 timmar och 18 minuter sedan, klockan 07:00 UTC
Vind 2 kt varierande vindriktning
Temperatur -1°C
Fuktighet 100%
Tryck 999 hPa
Sikt: 6000 m

METAR: LIPU 140700Z VRB02KT 6000 NSC M01/M01 Q0999

Tid: 22:18 (21:18 UTC)


TAF: saknas

Aktuella väderrapporter och prognoser från 4000 flygplatser (METAR- och TAF-rapporter).

De tillgängliga stationerna syns som gula och röda prickar på kartan.

För musen över prickarna för att se namnen på stationerna.

Klicka sedan för att få väderrapporter och prognoser.

För att ändra kartan: Klicka på de gröna knapparna med ett svart kors på för att zooma in; den gröna knappen med ett streck på för att zooma ut; eller på de gröna pilarna för angränsande kartor.


METAR-TAF: